Time;durP1;ratioP1;P1;durP2;ratioP2;P2;SDS_P1;SDS_P2;PMS_P1;PMS_P2;Temp;Humidity;BMP_temperature;BMP_pressure;BME280_temperature;BME280_humidity;BME280_pressure;Samples;Min_cycle;Max_cycle;Signal;HPM_P1;HPM_P2
2021/05/28 00:00:03;;;;;;;15.80;2.50;;;;;;;;;;4901674;29;20043;-54
2021/05/28 00:02:30;;;;;;;12.65;2.38;;;;;;;;;;4911093;29;20047;-55
2021/05/28 00:04:59;;;;;;;8.18;2.10;;;;;;;;;;4905454;29;20075;-58
2021/05/28 00:07:24;;;;;;;7.03;2.00;;;;;;;;;;4908388;29;20059;-56
2021/05/28 00:09:51;;;;;;;6.88;3.03;;;;;;;;;;4904449;29;20040;-55
2021/05/28 00:12:17;;;;;;;11.68;3.50;;;;;;;;;;4908782;29;20051;-58
2021/05/28 00:14:43;;;;;;;7.75;2.40;;;;;;;;;;4905121;29;20043;-58
2021/05/28 00:17:09;;;;;;;3.85;1.77;;;;;;;;;;4910271;29;20098;-57
2021/05/28 00:19:37;;;;;;;9.00;2.33;;;;;;;;;;4905142;29;20067;-57
2021/05/28 00:22:03;;;;;;;6.72;2.28;;;;;;;;;;4908838;29;20112;-56
2021/05/28 00:24:29;;;;;;;5.30;2.20;;;;;;;;;;4924454;29;20047;-59
2021/05/28 00:26:55;;;;;;;5.68;2.08;;;;;;;;;;4923225;29;20154;-58
2021/05/28 00:29:21;;;;;;;8.35;1.83;;;;;;;;;;4910426;29;20044;-53
2021/05/28 00:31:47;;;;;;;7.05;2.10;;;;;;;;;;4906011;29;20060;-57
2021/05/28 00:34:13;;;;;;;4.13;1.90;;;;;;;;;;4927440;29;20043;-57
2021/05/28 00:36:40;;;;;;;5.47;1.92;;;;;;;;;;4906407;29;20048;-59
2021/05/28 00:39:06;;;;;;;11.18;2.42;;;;;;;;;;4908453;29;20055;-58
2021/05/28 00:41:32;;;;;;;7.30;2.40;;;;;;;;;;4923390;29;20048;-53
2021/05/28 00:43:58;;;;;;;7.15;2.30;;;;;;;;;;4909924;29;20048;-58
2021/05/28 00:46:26;;;;;;;4.20;2.10;;;;;;;;;;4904685;29;20043;-54
2021/05/28 00:48:53;;;;;;;4.47;2.15;;;;;;;;;;4926207;29;20067;-56
2021/05/28 00:51:21;;;;;;;8.40;2.20;;;;;;;;;;4904747;29;20044;-57
2021/05/28 00:53:48;;;;;;;8.93;2.58;;;;;;;;;;4911136;29;20092;-56
2021/05/28 00:56:14;;;;;;;6.40;2.33;;;;;;;;;;4908313;29;20036;-56
2021/05/28 00:58:40;;;;;;;6.18;2.20;;;;;;;;;;4927420;29;20054;-56
2021/05/28 01:01:07;;;;;;;6.05;2.63;;;;;;;;;;4924053;29;20036;-58
2021/05/28 01:03:32;;;;;;;8.13;2.58;;;;;;;;;;4908525;29;20079;-57
2021/05/28 01:05:58;;;;;;;6.47;2.60;;;;;;;;;;4922133;29;20048;-60
2021/05/28 01:08:24;;;;;;;7.00;2.30;;;;;;;;;;4918698;29;20036;-58
2021/05/28 01:10:52;;;;;;;6.50;2.35;;;;;;;;;;4900608;29;20071;-59
2021/05/28 01:13:17;;;;;;;8.85;2.28;;;;;;;;;;4906133;29;20043;-59
2021/05/28 01:15:43;;;;;;;4.88;2.45;;;;;;;;;;4893599;29;20067;-59
2021/05/28 01:18:09;;;;;;;8.77;2.60;;;;;;;;;;4906194;29;20040;-55
2021/05/28 01:20:36;;;;;;;10.00;2.22;;;;;;;;;;4926413;29;20036;-55
2021/05/28 01:23:04;;;;;;;4.50;2.10;;;;;;;;;;4916572;29;20033;-58
2021/05/28 01:25:30;;;;;;;6.78;2.35;;;;;;;;;;4923518;29;20051;-54
2021/05/28 01:27:56;;;;;;;6.25;2.30;;;;;;;;;;4921738;29;20039;-56
2021/05/28 01:30:23;;;;;;;7.70;2.67;;;;;;;;;;4911164;29;20119;-59
2021/05/28 01:32:49;;;;;;;8.27;2.65;;;;;;;;;;4926861;29;20131;-53
2021/05/28 01:35:15;;;;;;;5.88;2.70;;;;;;;;;;4912800;29;20048;-56
2021/05/28 01:37:41;;;;;;;5.40;2.47;;;;;;;;;;4908219;29;20063;-58
2021/05/28 01:40:10;;;;;;;6.53;2.58;;;;;;;;;;4910045;29;20131;-58
2021/05/28 01:42:36;;;;;;;;;;;;;;;;;;4926650;29;20048;-55
2021/05/28 01:45:03;;;;;;;4.82;1.90;;;;;;;;;;4909797;29;19938;-54
2021/05/28 01:47:29;;;;;;;6.22;2.22;;;;;;;;;;4910986;29;20047;-56
2021/05/28 01:49:55;;;;;;;5.10;2.30;;;;;;;;;;4925243;29;20052;-57
2021/05/28 01:52:22;;;;;;;5.22;2.17;;;;;;;;;;4911051;29;20048;-56
2021/05/28 01:54:48;;;;;;;5.95;2.60;;;;;;;;;;4906709;29;20051;-58
2021/05/28 01:57:15;;;;;;;6.13;2.28;;;;;;;;;;4910964;29;20055;-56
2021/05/28 01:59:43;;;;;;;5.05;2.40;;;;;;;;;;4924538;29;20048;-59
2021/05/28 02:02:09;;;;;;;6.88;3.05;;;;;;;;;;4918435;29;20043;-59
2021/05/28 02:04:35;;;;;;;7.28;2.42;;;;;;;;;;4908449;29;20058;-58
2021/05/28 02:07:01;;;;;;;9.55;2.58;;;;;;;;;;4909610;29;20055;-59
2021/05/28 02:09:27;;;;;;;6.82;3.03;;;;;;;;;;4907255;29;20084;-58
2021/05/28 02:11:53;;;;;;;7.03;2.30;;;;;;;;;;4910551;29;20126;-59
2021/05/28 02:14:20;;;;;;;7.70;2.67;;;;;;;;;;4907183;29;20056;-58
2021/05/28 02:16:46;;;;;;;9.75;2.92;;;;;;;;;;4910883;29;20060;-58
2021/05/28 02:19:12;;;;;;;7.30;2.78;;;;;;;;;;4922216;29;20054;-58
2021/05/28 02:21:38;;;;;;;7.43;2.58;;;;;;;;;;4911095;29;20079;-56
2021/05/28 02:24:05;;;;;;;8.85;2.60;;;;;;;;;;4924904;29;20054;-59
2021/05/28 02:26:31;;;;;;;8.15;2.50;;;;;;;;;;4908729;29;20056;-57
2021/05/28 02:28:57;;;;;;;9.55;2.90;;;;;;;;;;4929185;29;20044;-58
2021/05/28 02:31:25;;;;;;;11.98;3.10;;;;;;;;;;4906857;29;20040;-58
2021/05/28 02:33:51;;;;;;;6.22;2.50;;;;;;;;;;4910304;29;20055;-59
2021/05/28 02:36:17;;;;;;;5.15;2.30;;;;;;;;;;4907748;29;20055;-58
2021/05/28 02:38:43;;;;;;;13.00;2.40;;;;;;;;;;4927222;29;20040;-59
2021/05/28 02:41:09;;;;;;;6.78;2.53;;;;;;;;;;4924994;29;20044;-59
2021/05/28 02:43:36;;;;;;;7.82;2.55;;;;;;;;;;4909813;29;20032;-59
2021/05/28 02:46:02;;;;;;;8.18;2.97;;;;;;;;;;4905524;29;20098;-57
2021/05/28 02:48:29;;;;;;;9.60;3.03;;;;;;;;;;4923233;29;20056;-59
2021/05/28 02:50:55;;;;;;;11.80;3.22;;;;;;;;;;4899884;29;20051;-55
2021/05/28 02:53:21;;;;;;;9.95;3.47;;;;;;;;;;4925303;29;20241;-58
2021/05/28 02:55:47;;;;;;;8.68;2.95;;;;;;;;;;4924480;29;20176;-59
2021/05/28 02:58:13;;;;;;;9.27;2.50;;;;;;;;;;4924575;29;20036;-57
2021/05/28 03:00:40;;;;;;;6.70;2.95;;;;;;;;;;4917311;29;20044;-57
2021/05/28 03:03:06;;;;;;;8.23;3.05;;;;;;;;;;4912203;29;20028;-58
2021/05/28 03:05:33;;;;;;;8.38;3.10;;;;;;;;;;4912382;29;20055;-58
2021/05/28 03:07:59;;;;;;;5.38;2.20;;;;;;;;;;4922507;28;20096;-57
2021/05/28 03:10:25;;;;;;;7.53;3.10;;;;;;;;;;4910715;29;20111;-58
2021/05/28 03:12:51;;;;;;;6.53;3.17;;;;;;;;;;4923985;29;20039;-59
2021/05/28 03:15:17;;;;;;;6.80;2.80;;;;;;;;;;4909741;29;20117;-56
2021/05/28 03:17:44;;;;;;;5.63;2.63;;;;;;;;;;4907654;29;20127;-58
2021/05/28 03:20:17;;;;;;;6.40;2.55;;;;;;;;;;4910181;29;20040;-58
2021/05/28 03:22:44;;;;;;;6.00;2.55;;;;;;;;;;4911796;29;20040;-59
2021/05/28 03:25:11;;;;;;;6.25;2.72;;;;;;;;;;4906755;29;20104;-57
2021/05/28 03:27:38;;;;;;;6.20;2.47;;;;;;;;;;4904658;29;20048;-58
2021/05/28 03:30:08;;;;;;;6.47;2.70;;;;;;;;;;4910383;29;20024;-58
2021/05/28 03:32:34;;;;;;;4.95;2.22;;;;;;;;;;4915699;29;20115;-59
2021/05/28 03:35:00;;;;;;;4.55;2.17;;;;;;;;;;4921361;29;20068;-58
2021/05/28 03:37:26;;;;;;;5.40;2.42;;;;;;;;;;4906251;29;20046;-59
2021/05/28 03:39:53;;;;;;;5.80;2.63;;;;;;;;;;4924112;29;20046;-58
2021/05/28 03:42:19;;;;;;;8.43;2.92;;;;;;;;;;4921227;29;20041;-59
2021/05/28 03:44:46;;;;;;;6.50;2.85;;;;;;;;;;4918587;29;20051;-58
2021/05/28 03:47:12;;;;;;;6.70;2.55;;;;;;;;;;4927559;29;20060;-58
2021/05/28 03:49:41;;;;;;;7.30;2.97;;;;;;;;;;4923414;29;20140;-59
2021/05/28 03:52:07;;;;;;;6.93;2.70;;;;;;;;;;4927630;29;20036;-59
2021/05/28 03:54:33;;;;;;;6.03;2.40;;;;;;;;;;4920965;29;20068;-55
2021/05/28 03:57:00;;;;;;;5.38;2.50;;;;;;;;;;4921242;29;20053;-59
2021/05/28 03:59:27;;;;;;;6.68;2.30;;;;;;;;;;4924223;29;20047;-59
2021/05/28 04:01:53;;;;;;;5.32;2.25;;;;;;;;;;4927328;29;20076;-59
2021/05/28 04:04:19;;;;;;;4.80;2.33;;;;;;;;;;4923307;29;20054;-59
2021/05/28 04:06:45;;;;;;;4.85;2.20;;;;;;;;;;4926865;29;20064;-57
2021/05/28 04:09:11;;;;;;;4.65;2.03;;;;;;;;;;4924609;28;20062;-59
2021/05/28 04:11:37;;;;;;;6.07;2.30;;;;;;;;;;4945212;29;20031;-59
2021/05/28 04:14:05;;;;;;;6.50;2.67;;;;;;;;;;4926773;28;20072;-57
2021/05/28 04:16:31;;;;;;;4.65;2.20;;;;;;;;;;4927600;28;20060;-59
2021/05/28 04:18:57;;;;;;;5.18;2.03;;;;;;;;;;4941657;28;20074;-59
2021/05/28 04:21:23;;;;;;;4.93;2.30;;;;;;;;;;4928874;29;20039;-59
2021/05/28 04:23:50;;;;;;;4.95;2.17;;;;;;;;;;4926328;28;20055;-56
2021/05/28 04:26:16;;;;;;;5.53;2.40;;;;;;;;;;4917537;29;20044;-59
2021/05/28 04:28:42;;;;;;;4.78;2.47;;;;;;;;;;4928491;29;20032;-58
2021/05/28 04:31:10;;;;;;;4.35;2.10;;;;;;;;;;4926936;29;20039;-59
2021/05/28 04:33:38;;;;;;;4.87;2.13;;;;;;;;;;4945811;29;20043;-58
2021/05/28 04:36:05;;;;;;;5.25;2.05;;;;;;;;;;4938768;28;20285;-59
2021/05/28 04:38:31;;;;;;;4.45;2.10;;;;;;;;;;4920109;29;20046;-59
2021/05/28 04:40:59;;;;;;;4.80;2.33;;;;;;;;;;4924118;29;20071;-55
2021/05/28 04:43:25;;;;;;;5.78;2.08;;;;;;;;;;4928159;29;20042;-55
2021/05/28 04:45:51;;;;;;;4.13;1.92;;;;;;;;;;4922738;29;20044;-58
2021/05/28 04:48:17;;;;;;;4.00;1.77;;;;;;;;;;4925616;29;20127;-56
2021/05/28 04:50:44;;;;;;;3.95;1.77;;;;;;;;;;4906541;29;20079;-55
2021/05/28 04:53:10;;;;;;;5.13;2.20;;;;;;;;;;4908925;29;20051;-55
2021/05/28 04:55:36;;;;;;;5.10;2.30;;;;;;;;;;4906289;29;20040;-57
2021/05/28 04:58:02;;;;;;;3.88;2.00;;;;;;;;;;4909032;29;20159;-54
2021/05/28 05:00:28;;;;;;;10.95;2.05;;;;;;;;;;4919712;29;20108;-56
2021/05/28 05:02:54;;;;;;;4.13;2.13;;;;;;;;;;4908681;29;20048;-51
2021/05/28 05:05:21;;;;;;;6.03;2.33;;;;;;;;;;4924920;29;20055;-56
2021/05/28 05:07:47;;;;;;;4.72;2.38;;;;;;;;;;4906792;29;20048;-57
2021/05/28 05:10:14;;;;;;;6.20;2.78;;;;;;;;;;4925358;29;20058;-57
2021/05/28 05:12:41;;;;;;;8.13;2.92;;;;;;;;;;4905204;29;20071;-57
2021/05/28 05:15:07;;;;;;;5.53;2.53;;;;;;;;;;4908311;29;20058;-56
2021/05/28 05:17:33;;;;;;;6.85;2.45;;;;;;;;;;4904849;29;20039;-56
2021/05/28 05:20:00;;;;;;;6.97;2.83;;;;;;;;;;4905321;29;20046;-56
2021/05/28 05:22:27;;;;;;;9.18;3.45;;;;;;;;;;4899832;29;20056;-55
2021/05/28 05:24:53;;;;;;;17.27;4.30;;;;;;;;;;4927753;29;20044;-55
2021/05/28 05:27:19;;;;;;;11.65;3.83;;;;;;;;;;4920388;29;20044;-56
2021/05/28 05:29:45;;;;;;;16.88;4.65;;;;;;;;;;4910881;29;20040;-56
2021/05/28 05:32:11;;;;;;;22.23;5.15;;;;;;;;;;4922118;29;20067;-56
2021/05/28 05:34:37;;;;;;;17.75;4.72;;;;;;;;;;4907410;29;20052;-57
2021/05/28 05:37:03;;;;;;;22.25;5.75;;;;;;;;;;4903986;29;20044;-56
2021/05/28 05:39:32;;;;;;;14.20;4.65;;;;;;;;;;4924665;29;20051;-58
2021/05/28 05:42:00;;;;;;;22.23;5.88;;;;;;;;;;4903606;29;20347;-55
2021/05/28 05:44:28;;;;;;;21.73;5.97;;;;;;;;;;4934025;28;20028;-58
2021/05/28 05:46:54;;;;;;;29.67;7.25;;;;;;;;;;4906022;29;20107;-56
2021/05/28 05:49:21;;;;;;;20.95;6.55;;;;;;;;;;4919109;29;20052;-53
2021/05/28 05:51:48;;;;;;;18.98;5.95;;;;;;;;;;4905828;29;20055;-54
2021/05/28 05:54:14;;;;;;;21.05;7.50;;;;;;;;;;4903621;29;20050;-57
2021/05/28 05:56:41;;;;;;;23.73;8.10;;;;;;;;;;4923268;29;20050;-56
2021/05/28 05:59:07;;;;;;;22.38;7.15;;;;;;;;;;4903092;29;20076;-57
2021/05/28 06:01:33;;;;;;;16.15;5.53;;;;;;;;;;4906700;29;20044;-56
2021/05/28 06:03:59;;;;;;;17.73;6.47;;;;;;;;;;4904223;29;20059;-58
2021/05/28 06:06:25;;;;;;;13.15;4.85;;;;;;;;;;4927949;29;20036;-56
2021/05/28 06:08:52;;;;;;;12.60;5.07;;;;;;;;;;4905007;29;20044;-59
2021/05/28 06:11:18;;;;;;;17.88;5.65;;;;;;;;;;4908056;29;20036;-58
2021/05/28 06:13:45;;;;;;;13.30;4.53;;;;;;;;;;4919184;29;20164;-57
2021/05/28 06:16:11;;;;;;;15.38;4.57;;;;;;;;;;4907347;29;20040;-60
2021/05/28 06:18:38;;;;;;;13.43;4.40;;;;;;;;;;4904770;29;20051;-57
2021/05/28 06:21:07;;;;;;;11.57;4.38;;;;;;;;;;4927470;29;20141;-55
2021/05/28 06:23:33;;;;;;;13.85;4.95;;;;;;;;;;4923974;29;20056;-57
2021/05/28 06:25:59;;;;;;;13.02;5.18;;;;;;;;;;4909561;29;20048;-54
2021/05/28 06:28:26;;;;;;;13.50;4.78;;;;;;;;;;4927126;29;20056;-56
2021/05/28 06:30:54;;;;;;;14.38;4.43;;;;;;;;;;4924504;29;20055;-58
2021/05/28 06:33:20;;;;;;;15.90;5.43;;;;;;;;;;4910407;29;20036;-57
2021/05/28 06:35:46;;;;;;;18.90;5.57;;;;;;;;;;4923607;29;20126;-58
2021/05/28 06:38:12;;;;;;;16.38;6.35;;;;;;;;;;4909976;29;20040;-57
2021/05/28 06:40:39;;;;;;;15.10;5.97;;;;;;;;;;4906520;29;20079;-56
2021/05/28 06:43:05;;;;;;;15.88;5.50;;;;;;;;;;4909490;29;20102;-57
2021/05/28 06:45:31;;;;;;;15.20;5.45;;;;;;;;;;4907340;29;20044;-57
2021/05/28 06:47:58;;;;;;;13.20;5.50;;;;;;;;;;4925997;29;20118;-57
2021/05/28 06:50:24;;;;;;;15.02;5.25;;;;;;;;;;4913222;29;20044;-55
2021/05/28 06:52:50;;;;;;;11.50;4.78;;;;;;;;;;4916791;29;20044;-55
2021/05/28 06:55:16;;;;;;;12.15;4.65;;;;;;;;;;4907071;29;20047;-57
2021/05/28 06:57:43;;;;;;;13.80;5.47;;;;;;;;;;4922373;29;20036;-55
2021/05/28 07:00:10;;;;;;;16.83;6.28;;;;;;;;;;4894844;29;20051;-55
2021/05/28 07:02:36;;;;;;;17.90;6.55;;;;;;;;;;4911421;29;20090;-57
2021/05/28 07:05:04;;;;;;;21.13;6.57;;;;;;;;;;4909747;29;20059;-54
2021/05/28 07:07:30;;;;;;;18.40;5.40;;;;;;;;;;4922891;29;20044;-58
2021/05/28 07:09:56;;;;;;;21.77;7.03;;;;;;;;;;4909037;29;20164;-55
2021/05/28 07:12:22;;;;;;;22.48;7.03;;;;;;;;;;4918167;29;20048;-57
2021/05/28 07:14:48;;;;;;;19.80;7.22;;;;;;;;;;4924450;29;20096;-56
2021/05/28 07:17:14;;;;;;;29.52;7.57;;;;;;;;;;4919980;29;20040;-56
2021/05/28 07:19:41;;;;;;;19.85;7.43;;;;;;;;;;4908754;29;20072;-59
2021/05/28 07:22:08;;;;;;;19.50;7.15;;;;;;;;;;4919834;29;20048;-58
2021/05/28 07:24:34;;;;;;;22.67;7.60;;;;;;;;;;4906603;29;20037;-56
2021/05/28 07:27:00;;;;;;;23.10;7.60;;;;;;;;;;4902586;29;20123;-55
2021/05/28 07:29:28;;;;;;;19.83;6.97;;;;;;;;;;4910774;29;20046;-58
2021/05/28 07:31:54;;;;;;;19.10;7.65;;;;;;;;;;4906080;29;20036;-58
2021/05/28 07:34:21;;;;;;;20.45;7.13;;;;;;;;;;4928681;29;20099;-58
2021/05/28 07:36:48;;;;;;;19.83;7.32;;;;;;;;;;4906383;29;20044;-55
2021/05/28 07:39:34;;;;;;;18.23;6.60;;;;;;;;;;4910403;29;20040;-56
2021/05/28 07:42:01;;;;;;;20.77;7.55;;;;;;;;;;4905134;29;20072;-56
2021/05/28 07:44:28;;;;;;;18.30;5.90;;;;;;;;;;4910654;29;20050;-58
2021/05/28 07:46:54;;;;;;;24.83;7.85;;;;;;;;;;4923334;29;20040;-58
2021/05/28 07:49:20;;;;;;;17.10;6.07;;;;;;;;;;4909807;29;20039;-58
2021/05/28 07:51:46;;;;;;;19.55;6.00;;;;;;;;;;4909490;29;20043;-58
2021/05/28 07:54:13;;;;;;;16.42;6.22;;;;;;;;;;4906056;29;20044;-58
2021/05/28 07:56:38;;;;;;;17.05;6.55;;;;;;;;;;4920245;29;20060;-58
2021/05/28 07:59:06;;;;;;;18.48;6.80;;;;;;;;;;4903776;29;20077;-57
2021/05/28 08:01:32;;;;;;;15.18;6.15;;;;;;;;;;4925833;29;20096;-57
2021/05/28 08:03:58;;;;;;;13.70;5.38;;;;;;;;;;4923642;29;20044;-59
2021/05/28 08:06:24;;;;;;;10.77;4.55;;;;;;;;;;4910208;29;20052;-57
2021/05/28 08:08:50;;;;;;;12.95;5.70;;;;;;;;;;4906738;29;20239;-58
2021/05/28 08:11:17;;;;;;;19.17;6.13;;;;;;;;;;4910615;29;20047;-58
2021/05/28 08:13:43;;;;;;;15.93;6.43;;;;;;;;;;4913980;29;20040;-58
2021/05/28 08:16:10;;;;;;;21.63;7.80;;;;;;;;;;4891499;29;20045;-58
2021/05/28 08:18:36;;;;;;;16.35;6.32;;;;;;;;;;4894794;29;20036;-59
2021/05/28 08:21:03;;;;;;;13.82;6.30;;;;;;;;;;4909945;29;20044;-57
2021/05/28 08:23:29;;;;;;;14.10;5.93;;;;;;;;;;4906966;29;20040;-59
2021/05/28 08:25:55;;;;;;;13.68;5.70;;;;;;;;;;4921760;29;20048;-59
2021/05/28 08:28:21;;;;;;;19.88;6.88;;;;;;;;;;4889571;29;20108;-57
2021/05/28 08:30:48;;;;;;;12.93;5.57;;;;;;;;;;4906770;29;20044;-57
2021/05/28 08:33:15;;;;;;;16.40;5.85;;;;;;;;;;4890198;29;20052;-58
2021/05/28 08:35:41;;;;;;;17.38;6.07;;;;;;;;;;4902786;29;20051;-58
2021/05/28 08:38:07;;;;;;;11.70;4.40;;;;;;;;;;4890810;29;20054;-59
2021/05/28 08:40:34;;;;;;;13.88;5.32;;;;;;;;;;4905586;29;20047;-59
2021/05/28 08:43:00;;;;;;;15.70;5.50;;;;;;;;;;4890190;29;20051;-55
2021/05/28 08:45:27;;;;;;;14.68;4.53;;;;;;;;;;4901803;29;20051;-58
2021/05/28 08:47:53;;;;;;;14.27;5.60;;;;;;;;;;4906514;29;20044;-59
2021/05/28 08:50:25;;;;;;;14.63;5.43;;;;;;;;;;4897007;29;20055;-57
2021/05/28 08:52:51;;;;;;;16.63;6.05;;;;;;;;;;4927300;29;20040;-57
2021/05/28 08:55:18;;;;;;;14.95;5.57;;;;;;;;;;4907027;29;20096;-58
2021/05/28 08:57:43;;;;;;;13.55;5.00;;;;;;;;;;4909031;29;20060;-58
2021/05/28 09:00:10;;;;;;;14.82;5.88;;;;;;;;;;4917339;29;20055;-60
2021/05/28 09:02:38;;;;;;;14.23;5.50;;;;;;;;;;4925978;29;20032;-60
2021/05/28 09:05:08;;;;;;;11.88;5.47;;;;;;;;;;4922587;29;20064;-57
2021/05/28 09:07:35;;;;;;;12.88;5.75;;;;;;;;;;4910614;29;20044;-59
2021/05/28 09:10:18;;;;;;;12.75;6.15;;;;;;;;;;4906768;29;20025;-60
2021/05/28 09:12:44;;;;;;;12.77;5.57;;;;;;;;;;4906277;29;20039;-59
2021/05/28 09:15:17;;;;;;;13.18;5.40;;;;;;;;;;4887634;29;20044;-56
2021/05/28 09:17:49;;;;;;;12.98;4.72;;;;;;;;;;4925267;29;20057;-58
2021/05/28 09:20:17;;;;;;;13.32;5.65;;;;;;;;;;4908299;29;20235;-57
2021/05/28 09:22:44;;;;;;;10.97;5.60;;;;;;;;;;4923833;29;20056;-58
2021/05/28 09:25:10;;;;;;;11.95;5.00;;;;;;;;;;4908870;29;20043;-59
2021/05/28 09:27:37;;;;;;;13.98;5.47;;;;;;;;;;4916688;29;20056;-57
2021/05/28 09:30:06;;;;;;;10.45;4.95;;;;;;;;;;4918740;29;20048;-59
2021/05/28 09:32:32;;;;;;;;;;;;;;;;;;4921630;29;20063;-56
2021/05/28 09:34:58;;;;;;;10.30;4.57;;;;;;;;;;4906693;29;20010;-58
2021/05/28 09:37:37;;;;;;;10.35;4.38;;;;;;;;;;4905114;29;20046;-58
2021/05/28 09:40:06;;;;;;;10.15;4.13;;;;;;;;;;4907065;29;20128;-57
2021/05/28 09:42:45;;;;;;;8.90;3.92;;;;;;;;;;4903566;29;20046;-58
2021/05/28 09:45:22;;;;;;;12.05;5.95;;;;;;;;;;4920166;29;20079;-57
2021/05/28 09:47:48;;;;;;;11.63;4.35;;;;;;;;;;4896923;29;20092;-58
2021/05/28 09:50:15;;;;;;;10.63;4.50;;;;;;;;;;4908307;29;20032;-58
2021/05/28 09:52:41;;;;;;;10.15;4.35;;;;;;;;;;4903673;29;20048;-58
2021/05/28 09:55:09;;;;;;;9.18;3.85;;;;;;;;;;4926600;29;20114;-55
2021/05/28 09:57:36;;;;;;;12.05;4.22;;;;;;;;;;4907916;29;20040;-57
2021/05/28 10:00:05;;;;;;;11.13;3.85;;;;;;;;;;4927813;29;20067;-58
2021/05/28 10:02:32;;;;;;;9.02;3.22;;;;;;;;;;4908675;29;20032;-58
2021/05/28 10:04:59;;;;;;;8.40;3.28;;;;;;;;;;4928585;29;20047;-58
2021/05/28 10:07:25;;;;;;;6.68;2.75;;;;;;;;;;4908632;29;20076;-58
2021/05/28 10:09:52;;;;;;;5.75;2.45;;;;;;;;;;4910984;29;20102;-57
2021/05/28 10:12:22;;;;;;;6.00;2.53;;;;;;;;;;4909972;29;20144;-58
2021/05/28 10:14:49;;;;;;;10.18;3.25;;;;;;;;;;4909101;29;20099;-59
2021/05/28 10:17:15;;;;;;;6.75;2.95;;;;;;;;;;4909636;29;20067;-58
2021/05/28 10:19:41;;;;;;;6.95;2.58;;;;;;;;;;4907428;29;20044;-61
2021/05/28 10:22:08;;;;;;;6.10;2.47;;;;;;;;;;4911048;29;20044;-59
2021/05/28 10:24:34;;;;;;;7.53;2.63;;;;;;;;;;4920057;29;20047;-59
2021/05/28 10:27:00;;;;;;;7.53;2.90;;;;;;;;;;4914398;29;20153;-59
2021/05/28 10:29:28;;;;;;;7.28;2.10;;;;;;;;;;4915692;29;20048;-61
2021/05/28 10:31:55;;;;;;;4.97;2.25;;;;;;;;;;4909558;29;20100;-60
2021/05/28 10:34:21;;;;;;;5.75;2.00;;;;;;;;;;4924846;29;20077;-61
2021/05/28 10:36:47;;;;;;;6.05;2.30;;;;;;;;;;4910331;29;20052;-61
2021/05/28 10:39:15;;;;;;;4.32;2.28;;;;;;;;;;4908159;29;20131;-60
2021/05/28 10:41:42;;;;;;;5.17;2.33;;;;;;;;;;4912353;29;20044;-61
2021/05/28 10:44:13;;;;;;;4.72;2.25;;;;;;;;;;4908675;29;20270;-61
2021/05/28 10:46:52;;;;;;;5.90;2.25;;;;;;;;;;4912801;29;20057;-60
2021/05/28 10:49:18;;;;;;;;;;;;;;;;;;4922710;29;20068;-60
2021/05/28 10:52:01;;;;;;;3.63;1.70;;;;;;;;;;4926551;29;19937;-60
2021/05/28 10:54:28;;;;;;;3.78;1.83;;;;;;;;;;4910381;29;20062;-59
2021/05/28 10:56:54;;;;;;;3.97;1.63;;;;;;;;;;4946362;29;20044;-59
2021/05/28 10:59:22;;;;;;;3.38;1.70;;;;;;;;;;4924566;29;20051;-59
2021/05/28 11:01:51;;;;;;;4.00;1.63;;;;;;;;;;4923498;29;20059;-60
2021/05/28 11:04:22;;;;;;;4.57;1.73;;;;;;;;;;4928818;29;20162;-59
2021/05/28 11:07:09;;;;;;;4.07;1.60;;;;;;;;;;4907584;29;20064;-59
2021/05/28 11:09:36;;;;;;;3.92;1.80;;;;;;;;;;4899932;29;20048;-59
2021/05/28 11:12:06;;;;;;;4.10;1.90;;;;;;;;;;4906845;29;20044;-59
2021/05/28 11:14:35;;;;;;;3.42;1.73;;;;;;;;;;4909267;29;20127;-59
2021/05/28 11:17:13;;;;;;;3.10;1.55;;;;;;;;;;4925360;29;20087;-59
2021/05/28 11:19:45;;;;;;;5.68;1.58;;;;;;;;;;4927568;29;20056;-59
2021/05/28 11:22:12;;;;;;;6.82;1.67;;;;;;;;;;4907526;29;20043;-59
2021/05/28 11:24:42;;;;;;;4.20;1.67;;;;;;;;;;4910736;29;20071;-59
2021/05/28 11:27:11;;;;;;;4.22;1.50;;;;;;;;;;4922225;29;20098;-59
2021/05/28 11:29:37;;;;;;;4.70;1.95;;;;;;;;;;4925724;29;20059;-59
2021/05/28 11:32:28;;;;;;;6.82;1.90;;;;;;;;;;4919087;29;20060;-60
2021/05/28 11:37:54;;;;;;;3.17;1.67;;;;;;;;;;5070648;27;20127;-58
2021/05/28 11:40:21;;;;;;;4.25;2.00;;;;;;;;;;5061564;28;20117;-58
2021/05/28 11:42:48;;;;;;;3.25;1.58;;;;;;;;;;5075031;28;20047;-58
2021/05/28 11:45:15;;;;;;;5.55;1.85;;;;;;;;;;5079327;28;20029;-58
2021/05/28 11:47:41;;;;;;;5.30;1.60;;;;;;;;;;5072206;28;20095;-59
2021/05/28 11:50:08;;;;;;;2.40;1.40;;;;;;;;;;5074116;28;20057;-61
2021/05/28 11:52:34;;;;;;;4.07;1.73;;;;;;;;;;5084686;28;20121;-60
2021/05/28 11:55:05;;;;;;;7.20;2.10;;;;;;;;;;5087821;28;20041;-61
2021/05/28 11:57:31;;;;;;;4.78;1.73;;;;;;;;;;5085092;28;20040;-61
2021/05/28 11:59:58;;;;;;;5.22;1.80;;;;;;;;;;5077126;28;20048;-60
2021/05/28 12:02:34;;;;;;;3.65;1.75;;;;;;;;;;5076911;28;20068;-60
2021/05/28 12:05:03;;;;;;;4.85;1.90;;;;;;;;;;5076758;28;20044;-59
2021/05/28 12:07:29;;;;;;;3.72;1.70;;;;;;;;;;5074695;28;20036;-60
2021/05/28 12:10:06;;;;;;;5.85;2.13;;;;;;;;;;5095446;28;20044;-60
2021/05/28 12:12:51;;;;;;;4.57;2.20;;;;;;;;;;5091927;28;20040;-61
2021/05/28 12:15:17;;;;;;;4.20;2.00;;;;;;;;;;5097815;28;20052;-62
2021/05/28 12:17:43;;;;;;;6.40;2.50;;;;;;;;;;5092124;28;20058;-61
2021/05/28 12:20:14;;;;;;;5.22;2.20;;;;;;;;;;5098375;28;20051;-62
2021/05/28 12:22:54;;;;;;;4.75;2.28;;;;;;;;;;5092796;28;20036;-60
2021/05/28 12:25:21;;;;;;;5.43;2.50;;;;;;;;;;5095459;28;20044;-60
2021/05/28 12:27:47;;;;;;;5.72;2.42;;;;;;;;;;5073272;28;20052;-61
2021/05/28 12:30:15;;;;;;;10.20;2.58;;;;;;;;;;5078694;28;20041;-60
2021/05/28 12:32:41;;;;;;;5.38;2.17;;;;;;;;;;5077124;28;20029;-60
2021/05/28 12:35:07;;;;;;;6.40;2.50;;;;;;;;;;5092252;28;20040;-61
2021/05/28 12:37:33;;;;;;;6.65;2.30;;;;;;;;;;5096838;28;20048;-60
2021/05/28 12:40:06;;;;;;;5.45;2.35;;;;;;;;;;5076839;28;20029;-60
2021/05/28 12:42:33;;;;;;;5.63;1.83;;;;;;;;;;5076226;28;20052;-61
2021/05/28 12:45:08;;;;;;;6.35;2.40;;;;;;;;;;5073638;28;20060;-60
2021/05/28 12:47:42;;;;;;;6.38;1.70;;;;;;;;;;5072647;28;20051;-60
2021/05/28 12:50:23;;;;;;;6.95;1.70;;;;;;;;;;5060586;28;20033;-61
2021/05/28 12:52:52;;;;;;;5.93;2.13;;;;;;;;;;5072365;28;20042;-60
2021/05/28 12:55:26;;;;;;;4.72;1.77;;;;;;;;;;5066924;28;20033;-60
2021/05/28 12:57:53;;;;;;;4.70;1.80;;;;;;;;;;5063059;28;20061;-60
2021/05/28 13:00:30;;;;;;;3.20;1.70;;;;;;;;;;5061345;28;20033;-58
2021/05/28 13:02:55;;;;;;;2.92;1.70;;;;;;;;;;5063526;28;20036;-60
2021/05/28 13:05:30;;;;;;;4.25;1.80;;;;;;;;;;5060955;28;20032;-59
2021/05/28 13:07:56;;;;;;;6.53;1.77;;;;;;;;;;5060855;28;20045;-59
2021/05/28 13:10:24;;;;;;;5.15;1.70;;;;;;;;;;5058440;28;20035;-58
2021/05/28 13:12:50;;;;;;;7.75;1.55;;;;;;;;;;5062402;28;20037;-59
2021/05/28 13:15:19;;;;;;;2.80;1.60;;;;;;;;;;5058201;28;20040;-59
2021/05/28 13:17:52;;;;;;;3.47;1.75;;;;;;;;;;5061994;28;20047;-59
2021/05/28 13:20:18;;;;;;;3.90;1.60;;;;;;;;;;5057665;28;20214;-59
2021/05/28 13:22:45;;;;;;;10.90;1.80;;;;;;;;;;5044948;28;20052;-60
2021/05/28 13:25:15;;;;;;;4.18;1.70;;;;;;;;;;5043326;28;20041;-62
2021/05/28 13:27:42;;;;;;;4.88;1.50;;;;;;;;;;5045884;28;20033;-59
2021/05/28 13:30:09;;;;;;;6.95;1.75;;;;;;;;;;5040627;28;20037;-60
2021/05/28 13:32:36;;;;;;;6.97;1.73;;;;;;;;;;5043690;28;20038;-59
2021/05/28 13:35:04;;;;;;;5.88;1.58;;;;;;;;;;5043086;28;20038;-59
2021/05/28 13:37:30;;;;;;;6.27;1.70;;;;;;;;;;5038452;28;20118;-59
2021/05/28 13:39:56;;;;;;;5.38;1.77;;;;;;;;;;5042119;28;20083;-59
2021/05/28 13:42:25;;;;;;;3.30;1.50;;;;;;;;;;5043136;28;20033;-60
2021/05/28 13:44:51;;;;;;;2.90;1.30;;;;;;;;;;5042762;28;20137;-59
2021/05/28 13:47:18;;;;;;;5.97;1.48;;;;;;;;;;5039508;28;20037;-58
2021/05/28 13:49:45;;;;;;;4.82;1.65;;;;;;;;;;5041983;28;20049;-62
2021/05/28 13:52:11;;;;;;;4.20;1.65;;;;;;;;;;5049544;28;20037;-61
2021/05/28 13:54:37;;;;;;;4.75;1.75;;;;;;;;;;5062541;28;20073;-62
2021/05/28 13:57:04;;;;;;;2.85;1.40;;;;;;;;;;5066281;28;20048;-62
2021/05/28 13:59:32;;;;;;;2.60;1.30;;;;;;;;;;5078676;28;20045;-61
2021/05/28 14:01:58;;;;;;;;;;;;;;;;;;5054279;28;20038;-63
2021/05/28 14:04:24;;;;;;;3.17;1.50;;;;;;;;;;5041030;28;19932;-61
2021/05/28 14:06:52;;;;;;;2.90;1.58;;;;;;;;;;5040625;28;20065;-62
2021/05/28 14:09:18;;;;;;;3.80;1.45;;;;;;;;;;5059506;28;20050;-63
2021/05/28 14:11:45;;;;;;;2.20;1.30;;;;;;;;;;5060596;28;20037;-63
2021/05/28 14:14:11;;;;;;;2.50;1.48;;;;;;;;;;5062176;28;20041;-63
2021/05/28 14:16:37;;;;;;;3.38;1.65;;;;;;;;;;5062328;28;20041;-62
2021/05/28 14:19:03;;;;;;;1.98;1.30;;;;;;;;;;5042871;28;20045;-62
2021/05/28 14:21:29;;;;;;;4.38;1.30;;;;;;;;;;5041451;28;20037;-61
2021/05/28 14:23:56;;;;;;;2.85;1.27;;;;;;;;;;5050505;28;20052;-61
2021/05/28 14:26:22;;;;;;;4.20;1.60;;;;;;;;;;5059698;28;20029;-62
2021/05/28 14:28:48;;;;;;;2.55;1.48;;;;;;;;;;5039004;28;20052;-62
2021/05/28 14:31:16;;;;;;;3.20;1.48;;;;;;;;;;5044540;28;20044;-61
2021/05/28 14:33:50;;;;;;;5.15;1.40;;;;;;;;;;5037954;28;20071;-62
2021/05/28 14:36:17;;;;;;;7.85;1.83;;;;;;;;;;5043114;28;20034;-63
2021/05/28 14:38:43;;;;;;;8.13;1.73;;;;;;;;;;5045770;28;20069;-63
2021/05/28 14:41:10;;;;;;;2.92;1.33;;;;;;;;;;5053391;28;20052;-63
2021/05/28 14:43:38;;;;;;;3.75;1.60;;;;;;;;;;5039637;28;20037;-62